createdAt,value
2023-04-07T00:02:49.292Z,7.07
2023-04-07T00:07:56.523Z,8.23
2023-04-07T00:12:59.949Z,6.65
2023-04-07T00:18:02.616Z,7.25
2023-04-07T00:23:05.093Z,4.80
2023-04-07T00:28:07.724Z,6.03
2023-04-07T00:33:10.330Z,6.50
2023-04-07T00:38:13.400Z,4.75
2023-04-07T00:43:16.502Z,6.47
2023-04-07T00:48:19.366Z,6.00
2023-04-07T00:53:21.878Z,5.07
2023-04-07T00:58:24.581Z,5.23
2023-04-07T01:03:35.793Z,7.75
2023-04-07T01:09:07.998Z,9.10
2023-04-07T01:14:13.811Z,7.40
2023-04-07T01:19:37.262Z,10.30
2023-04-07T01:25:17.327Z,10.93
2023-04-07T01:30:20.851Z,9.35
2023-04-07T01:35:25.748Z,7.10
2023-04-07T01:40:30.376Z,6.30
2023-04-07T01:45:36.665Z,5.00
2023-04-07T01:50:39.821Z,4.83
2023-04-07T01:55:44.134Z,6.50
2023-04-07T02:00:47.778Z,7.00
2023-04-07T02:05:58.178Z,5.93
2023-04-07T02:11:08.164Z,6.63
2023-04-07T02:16:14.219Z,6.40
2023-04-07T02:21:21.092Z,5.65
2023-04-07T02:26:23.684Z,6.47
2023-04-07T02:31:26.195Z,6.40
2023-04-07T02:36:29.071Z,7.20
2023-04-07T02:41:31.660Z,8.63
2023-04-07T02:46:35.730Z,7.03
2023-04-07T02:51:38.441Z,5.30
2023-04-07T02:56:41.185Z,8.40
2023-04-07T03:01:43.901Z,5.43
2023-04-07T03:06:46.935Z,6.73
2023-04-07T03:11:51.415Z,6.78
2023-04-07T03:16:55.352Z,5.80
2023-04-07T03:22:00.881Z,4.77
2023-04-07T03:27:08.397Z,6.13
2023-04-07T03:32:20.797Z,10.37
2023-04-07T03:37:23.384Z,10.50
2023-04-07T03:42:26.134Z,6.78
2023-04-07T03:47:35.773Z,11.63
2023-04-07T03:52:40.502Z,8.73
2023-04-07T03:57:54.419Z,9.40
2023-04-07T04:02:57.589Z,6.65
2023-04-07T04:08:00.508Z,3.97
2023-04-07T04:13:07.066Z,5.07
2023-04-07T04:18:10.430Z,5.40
2023-04-07T04:23:13.253Z,4.60
2023-04-07T04:28:17.893Z,6.03
2023-04-07T04:33:20.671Z,6.32
2023-04-07T04:38:30.714Z,5.70
2023-04-07T04:43:42.326Z,3.92
2023-04-07T04:48:47.396Z,8.47
2023-04-07T04:53:52.942Z,4.40
2023-04-07T04:58:58.628Z,3.58
2023-04-07T05:04:11.299Z,4.20
2023-04-07T05:09:19.887Z,3.75
2023-04-07T05:14:28.118Z,3.57
2023-04-07T05:19:41.085Z,3.97
2023-04-07T05:24:50.706Z,3.17
2023-04-07T05:29:54.320Z,4.00
2023-04-07T05:35:02.270Z,4.25
2023-04-07T05:40:08.803Z,4.30
2023-04-07T05:45:11.841Z,4.10
2023-04-07T05:50:19.448Z,5.40
2023-04-07T05:55:24.337Z,4.43
2023-04-07T06:00:28.115Z,4.38
2023-04-07T06:05:48.940Z,6.07
2023-04-07T06:10:55.080Z,4.03
2023-04-07T06:15:57.879Z,3.47
2023-04-07T06:21:00.537Z,4.70
2023-04-07T06:26:03.130Z,3.63
2023-04-07T06:31:06.169Z,4.30
2023-04-07T06:36:09.034Z,5.40
2023-04-07T06:41:17.135Z,4.82
2023-04-07T06:46:20.093Z,5.32
2023-04-07T06:51:22.862Z,3.13
2023-04-07T06:56:26.449Z,3.25
2023-04-07T07:01:29.822Z,3.07
2023-04-07T07:06:33.116Z,4.83
2023-04-07T07:11:35.724Z,3.13
2023-04-07T07:16:39.643Z,3.15
2023-04-07T07:21:42.129Z,3.47
2023-04-07T07:26:46.274Z,3.45
2023-04-07T07:31:49.096Z,3.00
2023-04-07T07:36:51.721Z,3.20
2023-04-07T07:41:54.323Z,3.65
2023-04-07T07:46:56.702Z,4.30
2023-04-07T07:52:00.155Z,5.00
2023-04-07T07:57:06.604Z,5.28
2023-04-07T08:02:09.845Z,7.03
2023-04-07T08:07:12.757Z,5.17
2023-04-07T08:12:15.897Z,4.47
2023-04-07T08:17:21.271Z,3.72
2023-04-07T08:22:23.842Z,4.00
2023-04-07T08:27:26.374Z,2.83
2023-04-07T08:32:42.435Z,3.35
2023-04-07T08:37:45.166Z,2.88
2023-04-07T08:42:50.206Z,2.63
2023-04-07T08:47:59.134Z,3.08
2023-04-07T08:53:07.279Z,3.47
2023-04-07T08:58:13.648Z,2.83
2023-04-07T09:03:20.180Z,2.80
2023-04-07T09:08:22.731Z,2.75
2023-04-07T09:13:26.205Z,3.10
2023-04-07T09:18:29.946Z,2.80
2023-04-07T09:23:35.211Z,2.97
2023-04-07T09:28:45.904Z,2.47
2023-04-07T09:33:52.050Z,2.70
2023-04-07T09:38:55.010Z,2.80
2023-04-07T09:43:58.746Z,2.17
2023-04-07T09:49:05.610Z,3.23
2023-04-07T09:54:09.660Z,3.03
2023-04-07T09:59:12.638Z,2.63
2023-04-07T10:04:17.918Z,2.80
2023-04-07T10:09:22.833Z,2.73
2023-04-07T10:14:32.066Z,2.70
2023-04-07T10:19:36.397Z,2.75
2023-04-07T10:24:42.802Z,3.13
2023-04-07T10:29:52.263Z,2.45
2023-04-07T10:34:58.781Z,2.90
2023-04-07T10:40:19.783Z,2.33
2023-04-07T10:45:52.487Z,2.42
2023-04-07T10:51:21.919Z,2.60
2023-04-07T10:56:26.214Z,2.33
2023-04-07T11:01:29.245Z,2.80
2023-04-07T11:06:32.370Z,3.15
2023-04-07T11:11:40.377Z,3.78
2023-04-07T11:16:44.143Z,3.13
2023-04-07T11:21:47.050Z,3.78
2023-04-07T11:26:50.682Z,3.60
2023-04-07T11:31:53.656Z,3.67
2023-04-07T11:37:00.042Z,3.83
2023-04-07T11:42:02.555Z,3.20
2023-04-07T11:47:05.906Z,2.97
2023-04-07T11:52:08.553Z,3.30
2023-04-07T11:57:14.280Z,4.72
2023-04-07T12:02:36.561Z,3.88
2023-04-07T12:07:42.219Z,3.77
2023-04-07T12:12:46.890Z,4.00
2023-04-07T12:17:49.864Z,3.60
2023-04-07T12:22:53.209Z,4.13
2023-04-07T12:27:56.603Z,3.78
2023-04-07T12:32:59.422Z,4.10
2023-04-07T12:38:02.111Z,4.30
2023-04-07T12:43:07.989Z,3.63
2023-04-07T12:48:10.594Z,3.92
2023-04-07T12:53:16.130Z,3.83
2023-04-07T12:58:19.540Z,3.70
2023-04-07T13:03:22.164Z,3.63
2023-04-07T13:08:25.027Z,3.72
2023-04-07T13:13:27.640Z,3.60
2023-04-07T13:18:30.333Z,3.72
2023-04-07T13:23:42.705Z,3.58
2023-04-07T13:28:56.793Z,3.93
2023-04-07T13:33:59.486Z,3.40
2023-04-07T13:39:02.441Z,3.58
2023-04-07T13:44:05.318Z,3.42
2023-04-07T13:49:08.732Z,3.50
2023-04-07T13:54:12.052Z,4.53
2023-04-07T13:59:14.778Z,4.28
2023-04-07T14:04:17.543Z,4.53
2023-04-07T14:09:20.249Z,3.92
2023-04-07T14:14:23.082Z,2.97
2023-04-07T14:19:25.690Z,3.10
2023-04-07T14:24:28.112Z,2.70
2023-04-07T14:29:30.688Z,3.10
2023-04-07T14:34:33.232Z,2.75
2023-04-07T14:39:35.949Z,2.50
2023-04-07T14:44:38.618Z,2.40
2023-04-07T14:49:41.122Z,1.92
2023-04-07T14:54:43.945Z,2.50
2023-04-07T14:59:47.876Z,2.05
2023-04-07T15:04:50.844Z,2.33
2023-04-07T15:09:54.276Z,2.43
2023-04-07T15:14:56.899Z,2.53
2023-04-07T15:19:59.422Z,2.80
2023-04-07T15:25:03.620Z,2.45
2023-04-07T15:30:06.789Z,2.47
2023-04-07T15:35:09.593Z,2.13
2023-04-07T15:40:12.585Z,2.05
2023-04-07T15:45:15.186Z,2.70
2023-04-07T15:50:17.777Z,2.80
2023-04-07T15:55:20.475Z,2.47
2023-04-07T16:00:23.454Z,2.37
2023-04-07T16:05:26.049Z,2.20
2023-04-07T16:10:28.641Z,2.10
2023-04-07T16:15:39.963Z,2.00
2023-04-07T16:20:43.566Z,2.30
2023-04-07T16:25:46.140Z,2.45
2023-04-07T16:30:48.754Z,2.22
2023-04-07T16:35:51.308Z,2.40
2023-04-07T16:41:03.242Z,1.98
2023-04-07T16:46:06.993Z,2.25
2023-04-07T16:51:09.560Z,2.17
2023-04-07T16:56:22.537Z,3.13
2023-04-07T17:01:24.965Z,3.25
2023-04-07T17:06:27.840Z,2.28
2023-04-07T17:11:30.574Z,2.90
2023-04-07T17:16:33.169Z,2.10
2023-04-07T17:21:36.048Z,2.03
2023-04-07T17:26:38.702Z,1.93
2023-04-07T17:31:41.451Z,1.73
2023-04-07T17:36:44.091Z,2.33
2023-04-07T17:41:47.829Z,1.70
2023-04-07T17:46:50.649Z,1.92
2023-04-07T17:51:53.155Z,2.30
2023-04-07T17:56:55.886Z,1.50
2023-04-07T18:01:58.538Z,1.70
2023-04-07T18:07:01.141Z,1.47
2023-04-07T18:12:03.922Z,1.37
2023-04-07T18:17:06.390Z,1.63
2023-04-07T18:22:12.019Z,1.80
2023-04-07T18:27:14.670Z,1.40
2023-04-07T18:32:17.328Z,1.80
2023-04-07T18:37:19.988Z,1.30
2023-04-07T18:42:22.612Z,1.23
2023-04-07T18:47:25.232Z,1.50
2023-04-07T18:52:27.839Z,1.57
2023-04-07T18:57:30.384Z,1.80
2023-04-07T19:02:33.227Z,1.20
2023-04-07T19:07:36.401Z,1.40
2023-04-07T19:12:38.988Z,1.20
2023-04-07T19:17:41.819Z,1.30
2023-04-07T19:22:44.388Z,1.27
2023-04-07T19:27:46.970Z,1.38
2023-04-07T19:32:49.499Z,1.08
2023-04-07T19:37:52.719Z,1.43
2023-04-07T19:42:57.438Z,1.02
2023-04-07T19:48:00.465Z,1.03
2023-04-07T19:53:02.891Z,0.70
2023-04-07T19:58:05.540Z,1.00
2023-04-07T20:03:08.153Z,1.43
2023-04-07T20:08:11.399Z,0.90
2023-04-07T20:13:13.886Z,0.98
2023-04-07T20:18:19.616Z,1.00
2023-04-07T20:23:22.551Z,0.77
2023-04-07T20:28:25.608Z,0.70
2023-04-07T20:33:28.255Z,1.00
2023-04-07T20:38:30.762Z,0.98
2023-04-07T20:43:33.338Z,0.80
2023-04-07T20:48:35.935Z,0.82
2023-04-07T20:53:38.455Z,0.77
2023-04-07T20:58:40.977Z,0.90
2023-04-07T21:03:43.617Z,0.68
2023-04-07T21:08:46.424Z,1.10
2023-04-07T21:13:49.143Z,0.80
2023-04-07T21:18:51.822Z,1.08
2023-04-07T21:23:54.315Z,0.80
2023-04-07T21:28:56.868Z,0.98
2023-04-07T21:34:00.690Z,1.20
2023-04-07T21:39:03.355Z,0.90
2023-04-07T21:44:09.689Z,1.17
2023-04-07T21:49:14.608Z,1.27
2023-04-07T21:54:17.640Z,1.27
2023-04-07T21:59:20.138Z,1.20
2023-04-07T22:04:22.619Z,0.97
2023-04-07T22:09:26.717Z,1.40
2023-04-07T22:14:29.291Z,1.43
2023-04-07T22:19:31.854Z,1.50
2023-04-07T22:24:35.410Z,4.07
2023-04-07T22:29:38.558Z,3.30
2023-04-07T22:34:41.071Z,3.70
2023-04-07T22:40:02.595Z,2.83
2023-04-07T22:45:07.093Z,2.30
2023-04-07T22:50:13.045Z,2.33
2023-04-07T22:55:15.953Z,1.73
2023-04-07T23:00:18.585Z,1.63
2023-04-07T23:05:20.971Z,2.00
2023-04-07T23:10:23.610Z,1.63
2023-04-07T23:15:27.470Z,1.50
2023-04-07T23:20:30.001Z,1.92
2023-04-07T23:25:32.519Z,2.08
2023-04-07T23:30:37.710Z,2.50
2023-04-07T23:35:40.289Z,1.83
2023-04-07T23:40:43.053Z,1.95
2023-04-07T23:45:45.783Z,1.40
2023-04-07T23:50:50.336Z,2.47
2023-04-07T23:55:52.881Z,2.93
